sensor_id;sensor_type;location;lat;lon;timestamp;temperature;humidity
39825;DHT22;25503;52.532;13.640;2023-07-31T00:00:05;15.90;99.90
39825;DHT22;25503;52.532;13.640;2023-07-31T00:02:31;15.80;99.90
39825;DHT22;25503;52.532;13.640;2023-07-31T00:04:57;15.80;99.90
39825;DHT22;25503;52.532;13.640;2023-07-31T00:07:22;15.80;99.90
39825;DHT22;25503;52.532;13.640;2023-07-31T00:09:48;15.80;99.90
39825;DHT22;25503;52.532;13.640;2023-07-31T00:12:13;15.80;99.90
39825;DHT22;25503;52.532;13.640;2023-07-31T00:14:39;15.70;99.90
39825;DHT22;25503;52.532;13.640;2023-07-31T00:17:05;15.70;99.90
39825;DHT22;25503;52.532;13.640;2023-07-31T00:19:30;15.70;99.90
39825;DHT22;25503;52.532;13.640;2023-07-31T00:21:56;15.70;99.90
39825;DHT22;25503;52.532;13.640;2023-07-31T00:24:21;15.70;99.90
39825;DHT22;25503;52.532;13.640;2023-07-31T00:26:47;15.70;99.90
39825;DHT22;25503;52.532;13.640;2023-07-31T00:29:12;15.60;99.90
39825;DHT22;25503;52.532;13.640;2023-07-31T00:31:38;15.60;99.90
39825;DHT22;25503;52.532;13.640;2023-07-31T00:34:04;15.60;99.90
39825;DHT22;25503;52.532;13.640;2023-07-31T00:36:29;15.50;99.90
39825;DHT22;25503;52.532;13.640;2023-07-31T00:38:55;15.50;99.90
39825;DHT22;25503;52.532;13.640;2023-07-31T00:41:21;15.50;99.90
39825;DHT22;25503;52.532;13.640;2023-07-31T00:43:47;15.40;99.90
39825;DHT22;25503;52.532;13.640;2023-07-31T00:46:12;15.40;99.90
39825;DHT22;25503;52.532;13.640;2023-07-31T00:48:39;15.40;99.90
39825;DHT22;25503;52.532;13.640;2023-07-31T00:51:06;15.40;99.90
39825;DHT22;25503;52.532;13.640;2023-07-31T00:53:32;15.40;99.90
39825;DHT22;25503;52.532;13.640;2023-07-31T00:55:59;15.30;99.90
39825;DHT22;25503;52.532;13.640;2023-07-31T00:58:24;15.30;99.90
39825;DHT22;25503;52.532;13.640;2023-07-31T01:00:50;15.30;99.90
39825;DHT22;25503;52.532;13.640;2023-07-31T01:03:16;15.30;99.90
39825;DHT22;25503;52.532;13.640;2023-07-31T01:06:09;15.30;99.90
39825;DHT22;25503;52.532;13.640;2023-07-31T01:11:43;15.30;99.90
39825;DHT22;25503;52.532;13.640;2023-07-31T01:14:11;15.30;99.90
39825;DHT22;25503;52.532;13.640;2023-07-31T01:16:37;15.30;99.90
39825;DHT22;25503;52.532;13.640;2023-07-31T01:19:02;15.30;99.90
39825;DHT22;25503;52.532;13.640;2023-07-31T01:24:48;15.30;99.90
39825;DHT22;25503;52.532;13.640;2023-07-31T01:27:25;15.30;99.90
39825;DHT22;25503;52.532;13.640;2023-07-31T01:32:56;15.30;99.90
39825;DHT22;25503;52.532;13.640;2023-07-31T01:35:22;15.30;99.90
39825;DHT22;25503;52.532;13.640;2023-07-31T01:37:48;15.30;99.90
39825;DHT22;25503;52.532;13.640;2023-07-31T01:40:13;15.30;99.90
39825;DHT22;25503;52.532;13.640;2023-07-31T01:42:39;15.30;99.90
39825;DHT22;25503;52.532;13.640;2023-07-31T01:45:05;15.30;99.90
39825;DHT22;25503;52.532;13.640;2023-07-31T01:47:31;15.30;99.90
39825;DHT22;25503;52.532;13.640;2023-07-31T01:49:56;15.30;99.90
39825;DHT22;25503;52.532;13.640;2023-07-31T01:52:22;15.30;99.90
39825;DHT22;25503;52.532;13.640;2023-07-31T01:54:47;15.30;99.90
39825;DHT22;25503;52.532;13.640;2023-07-31T01:57:13;15.30;99.90
39825;DHT22;25503;52.532;13.640;2023-07-31T01:59:38;15.30;99.90
39825;DHT22;25503;52.532;13.640;2023-07-31T02:02:04;15.30;99.90
39825;DHT22;25503;52.532;13.640;2023-07-31T02:04:30;15.30;99.90
39825;DHT22;25503;52.532;13.640;2023-07-31T02:06:56;15.30;99.90
39825;DHT22;25503;52.532;13.640;2023-07-31T02:09:21;15.30;99.90
39825;DHT22;25503;52.532;13.640;2023-07-31T02:11:47;15.30;99.90
39825;DHT22;25503;52.532;13.640;2023-07-31T02:14:12;15.30;99.90
39825;DHT22;25503;52.532;13.640;2023-07-31T02:16:38;15.40;99.90
39825;DHT22;25503;52.532;13.640;2023-07-31T02:19:03;15.40;99.90
39825;DHT22;25503;52.532;13.640;2023-07-31T02:21:29;15.40;99.90
39825;DHT22;25503;52.532;13.640;2023-07-31T02:23:54;15.40;99.90
39825;DHT22;25503;52.532;13.640;2023-07-31T02:26:20;15.50;99.90
39825;DHT22;25503;52.532;13.640;2023-07-31T02:28:46;15.40;99.90
39825;DHT22;25503;52.532;13.640;2023-07-31T02:31:11;15.40;99.90
39825;DHT22;25503;52.532;13.640;2023-07-31T02:33:37;15.40;99.90
39825;DHT22;25503;52.532;13.640;2023-07-31T02:36:02;15.40;99.90
39825;DHT22;25503;52.532;13.640;2023-07-31T02:38:28;15.40;99.90
39825;DHT22;25503;52.532;13.640;2023-07-31T02:40:53;15.40;99.90
39825;DHT22;25503;52.532;13.640;2023-07-31T02:43:19;15.40;99.90
39825;DHT22;25503;52.532;13.640;2023-07-31T02:45:45;15.40;99.90
39825;DHT22;25503;52.532;13.640;2023-07-31T02:48:10;15.40;99.90
39825;DHT22;25503;52.532;13.640;2023-07-31T02:50:36;15.40;99.90
39825;DHT22;25503;52.532;13.640;2023-07-31T02:53:02;15.50;99.90
39825;DHT22;25503;52.532;13.640;2023-07-31T02:55:27;15.50;99.90
39825;DHT22;25503;52.532;13.640;2023-07-31T02:57:53;15.40;99.90
39825;DHT22;25503;52.532;13.640;2023-07-31T03:00:19;15.40;99.90
39825;DHT22;25503;52.532;13.640;2023-07-31T03:02:44;15.50;99.90
39825;DHT22;25503;52.532;13.640;2023-07-31T03:05:10;15.50;99.90
39825;DHT22;25503;52.532;13.640;2023-07-31T03:07:35;15.50;99.90
39825;DHT22;25503;52.532;13.640;2023-07-31T03:10:01;15.50;99.90
39825;DHT22;25503;52.532;13.640;2023-07-31T03:12:27;15.50;99.90
39825;DHT22;25503;52.532;13.640;2023-07-31T03:14:53;15.60;99.90
39825;DHT22;25503;52.532;13.640;2023-07-31T03:17:18;15.50;99.90
39825;DHT22;25503;52.532;13.640;2023-07-31T03:19:44;15.60;99.90
39825;DHT22;25503;52.532;13.640;2023-07-31T03:22:09;15.60;99.90
39825;DHT22;25503;52.532;13.640;2023-07-31T03:24:35;15.50;99.90
39825;DHT22;25503;52.532;13.640;2023-07-31T03:27:01;15.50;99.90
39825;DHT22;25503;52.532;13.640;2023-07-31T03:29:26;15.50;99.90
39825;DHT22;25503;52.532;13.640;2023-07-31T03:31:52;15.50;99.90
39825;DHT22;25503;52.532;13.640;2023-07-31T03:34:18;15.50;99.90
39825;DHT22;25503;52.532;13.640;2023-07-31T03:36:43;15.50;99.90
39825;DHT22;25503;52.532;13.640;2023-07-31T03:39:09;15.50;99.90
39825;DHT22;25503;52.532;13.640;2023-07-31T03:41:35;15.50;99.90
39825;DHT22;25503;52.532;13.640;2023-07-31T03:44:00;15.50;99.90
39825;DHT22;25503;52.532;13.640;2023-07-31T03:46:26;15.50;99.90
39825;DHT22;25503;52.532;13.640;2023-07-31T03:48:52;15.50;99.90
39825;DHT22;25503;52.532;13.640;2023-07-31T03:51:17;15.40;99.90
39825;DHT22;25503;52.532;13.640;2023-07-31T03:53:43;15.50;99.90
39825;DHT22;25503;52.532;13.640;2023-07-31T03:56:09;15.40;99.90
39825;DHT22;25503;52.532;13.640;2023-07-31T03:58:35;15.50;99.90
39825;DHT22;25503;52.532;13.640;2023-07-31T04:01:02;15.40;99.90
39825;DHT22;25503;52.532;13.640;2023-07-31T04:03:28;15.40;99.90
39825;DHT22;25503;52.532;13.640;2023-07-31T04:05:54;15.40;99.90
39825;DHT22;25503;52.532;13.640;2023-07-31T04:08:21;15.40;99.90
39825;DHT22;25503;52.532;13.640;2023-07-31T04:10:47;15.40;99.90
39825;DHT22;25503;52.532;13.640;2023-07-31T04:13:13;15.40;99.90
39825;DHT22;25503;52.532;13.640;2023-07-31T04:15:38;15.40;99.90
39825;DHT22;25503;52.532;13.640;2023-07-31T04:18:05;15.40;99.90
39825;DHT22;25503;52.532;13.640;2023-07-31T04:20:31;15.40;99.90
39825;DHT22;25503;52.532;13.640;2023-07-31T04:22:57;15.40;99.90
39825;DHT22;25503;52.532;13.640;2023-07-31T04:25:22;15.40;99.90
39825;DHT22;25503;52.532;13.640;2023-07-31T04:27:48;15.50;99.90
39825;DHT22;25503;52.532;13.640;2023-07-31T04:30:13;15.50;99.90
39825;DHT22;25503;52.532;13.640;2023-07-31T04:32:39;15.50;99.90
39825;DHT22;25503;52.532;13.640;2023-07-31T04:35:05;15.50;99.90
39825;DHT22;25503;52.532;13.640;2023-07-31T04:37:31;15.50;99.90
39825;DHT22;25503;52.532;13.640;2023-07-31T04:39:56;15.50;99.90
39825;DHT22;25503;52.532;13.640;2023-07-31T04:42:22;15.50;99.90
39825;DHT22;25503;52.532;13.640;2023-07-31T04:44:48;15.60;99.90
39825;DHT22;25503;52.532;13.640;2023-07-31T04:47:13;15.60;99.90
39825;DHT22;25503;52.532;13.640;2023-07-31T04:49:39;15.60;99.90
39825;DHT22;25503;52.532;13.640;2023-07-31T04:52:05;15.60;99.90
39825;DHT22;25503;52.532;13.640;2023-07-31T04:54:30;15.60;99.90
39825;DHT22;25503;52.532;13.640;2023-07-31T04:56:56;15.60;99.90
39825;DHT22;25503;52.532;13.640;2023-07-31T04:59:21;15.60;99.90
39825;DHT22;25503;52.532;13.640;2023-07-31T05:01:47;15.70;99.90
39825;DHT22;25503;52.532;13.640;2023-07-31T05:04:13;15.70;99.90
39825;DHT22;25503;52.532;13.640;2023-07-31T05:06:40;15.70;99.90
39825;DHT22;25503;52.532;13.640;2023-07-31T05:09:05;15.70;99.90
39825;DHT22;25503;52.532;13.640;2023-07-31T05:11:31;15.70;99.90
39825;DHT22;25503;52.532;13.640;2023-07-31T05:13:56;15.70;99.90
39825;DHT22;25503;52.532;13.640;2023-07-31T05:16:22;15.70;99.90
39825;DHT22;25503;52.532;13.640;2023-07-31T05:18:47;15.80;99.90
39825;DHT22;25503;52.532;13.640;2023-07-31T05:21:13;15.80;99.90
39825;DHT22;25503;52.532;13.640;2023-07-31T05:23:39;15.80;99.90
39825;DHT22;25503;52.532;13.640;2023-07-31T05:26:05;15.80;99.90
39825;DHT22;25503;52.532;13.640;2023-07-31T05:28:31;15.80;99.90
39825;DHT22;25503;52.532;13.640;2023-07-31T05:31:01;15.90;99.90
39825;DHT22;25503;52.532;13.640;2023-07-31T05:33:27;15.90;99.90
39825;DHT22;25503;52.532;13.640;2023-07-31T05:35:53;15.90;99.90
39825;DHT22;25503;52.532;13.640;2023-07-31T05:38:19;16.00;99.90
39825;DHT22;25503;52.532;13.640;2023-07-31T05:40:44;15.90;99.90
39825;DHT22;25503;52.532;13.640;2023-07-31T05:43:10;15.90;99.90
39825;DHT22;25503;52.532;13.640;2023-07-31T05:45:36;16.00;99.90
39825;DHT22;25503;52.532;13.640;2023-07-31T05:48:02;16.00;99.90
39825;DHT22;25503;52.532;13.640;2023-07-31T05:50:28;16.00;99.90
39825;DHT22;25503;52.532;13.640;2023-07-31T05:52:54;16.10;99.90
39825;DHT22;25503;52.532;13.640;2023-07-31T05:55:19;16.00;99.90
39825;DHT22;25503;52.532;13.640;2023-07-31T05:57:45;16.10;99.90
39825;DHT22;25503;52.532;13.640;2023-07-31T06:00:12;16.10;99.90
39825;DHT22;25503;52.532;13.640;2023-07-31T06:02:38;16.10;99.90
39825;DHT22;25503;52.532;13.640;2023-07-31T06:05:04;16.10;99.90
39825;DHT22;25503;52.532;13.640;2023-07-31T06:07:31;16.10;99.90
39825;DHT22;25503;52.532;13.640;2023-07-31T06:09:57;16.10;99.90
39825;DHT22;25503;52.532;13.640;2023-07-31T06:12:28;16.10;99.90
39825;DHT22;25503;52.532;13.640;2023-07-31T06:14:54;16.20;99.90
39825;DHT22;25503;52.532;13.640;2023-07-31T06:17:19;16.20;99.90
39825;DHT22;25503;52.532;13.640;2023-07-31T06:19:45;16.20;99.90
39825;DHT22;25503;52.532;13.640;2023-07-31T06:22:11;16.20;99.90
39825;DHT22;25503;52.532;13.640;2023-07-31T06:24:36;16.20;99.90
39825;DHT22;25503;52.532;13.640;2023-07-31T06:27:02;16.20;99.90
39825;DHT22;25503;52.532;13.640;2023-07-31T06:29:29;16.20;99.90
39825;DHT22;25503;52.532;13.640;2023-07-31T06:31:55;16.20;99.90
39825;DHT22;25503;52.532;13.640;2023-07-31T06:34:21;16.20;99.90
39825;DHT22;25503;52.532;13.640;2023-07-31T06:36:46;16.20;99.90
39825;DHT22;25503;52.532;13.640;2023-07-31T06:39:12;16.20;99.90
39825;DHT22;25503;52.532;13.640;2023-07-31T06:41:38;16.30;99.90
39825;DHT22;25503;52.532;13.640;2023-07-31T06:44:03;16.30;99.90
39825;DHT22;25503;52.532;13.640;2023-07-31T06:46:29;16.30;99.90
39825;DHT22;25503;52.532;13.640;2023-07-31T06:48:55;16.30;99.90
39825;DHT22;25503;52.532;13.640;2023-07-31T06:51:20;16.30;99.90
39825;DHT22;25503;52.532;13.640;2023-07-31T06:53:46;16.40;99.90
39825;DHT22;25503;52.532;13.640;2023-07-31T06:56:12;16.40;99.90
39825;DHT22;25503;52.532;13.640;2023-07-31T06:58:38;16.40;99.90
39825;DHT22;25503;52.532;13.640;2023-07-31T07:01:03;16.50;99.90
39825;DHT22;25503;52.532;13.640;2023-07-31T07:03:29;16.50;99.90
39825;DHT22;25503;52.532;13.640;2023-07-31T07:05:55;16.50;99.90
39825;DHT22;25503;52.532;13.640;2023-07-31T07:08:20;16.50;99.90
39825;DHT22;25503;52.532;13.640;2023-07-31T07:10:46;16.50;99.90
39825;DHT22;25503;52.532;13.640;2023-07-31T07:13:12;16.50;99.90
39825;DHT22;25503;52.532;13.640;2023-07-31T07:15:38;16.50;99.90
39825;DHT22;25503;52.532;13.640;2023-07-31T07:18:04;16.50;99.90
39825;DHT22;25503;52.532;13.640;2023-07-31T07:20:30;16.60;99.90
39825;DHT22;25503;52.532;13.640;2023-07-31T07:22:55;16.60;99.90
39825;DHT22;25503;52.532;13.640;2023-07-31T07:25:21;16.60;99.90
39825;DHT22;25503;52.532;13.640;2023-07-31T07:27:46;16.50;99.90
39825;DHT22;25503;52.532;13.640;2023-07-31T07:30:12;16.50;99.90
39825;DHT22;25503;52.532;13.640;2023-07-31T07:32:39;16.50;99.90
39825;DHT22;25503;52.532;13.640;2023-07-31T07:35:05;16.50;99.90
39825;DHT22;25503;52.532;13.640;2023-07-31T07:37:31;16.50;99.90
39825;DHT22;25503;52.532;13.640;2023-07-31T07:39:57;16.50;99.90
39825;DHT22;25503;52.532;13.640;2023-07-31T07:42:23;16.50;99.90
39825;DHT22;25503;52.532;13.640;2023-07-31T07:44:48;16.50;99.90
39825;DHT22;25503;52.532;13.640;2023-07-31T07:47:14;16.50;99.90
39825;DHT22;25503;52.532;13.640;2023-07-31T07:49:39;16.50;99.90
39825;DHT22;25503;52.532;13.640;2023-07-31T07:52:05;16.60;99.90
39825;DHT22;25503;52.532;13.640;2023-07-31T07:54:31;16.60;99.90
39825;DHT22;25503;52.532;13.640;2023-07-31T07:56:57;16.70;99.90
39825;DHT22;25503;52.532;13.640;2023-07-31T07:59:22;16.80;99.90
39825;DHT22;25503;52.532;13.640;2023-07-31T08:01:48;16.90;99.90
39825;DHT22;25503;52.532;13.640;2023-07-31T08:04:14;17.00;99.90
39825;DHT22;25503;52.532;13.640;2023-07-31T08:06:39;17.00;99.90
39825;DHT22;25503;52.532;13.640;2023-07-31T08:09:05;17.10;99.90
39825;DHT22;25503;52.532;13.640;2023-07-31T08:11:32;17.10;99.90
39825;DHT22;25503;52.532;13.640;2023-07-31T08:13:58;17.20;99.90
39825;DHT22;25503;52.532;13.640;2023-07-31T08:16:23;17.20;99.90
39825;DHT22;25503;52.532;13.640;2023-07-31T08:18:49;17.20;99.90
39825;DHT22;25503;52.532;13.640;2023-07-31T08:21:14;17.20;99.90
39825;DHT22;25503;52.532;13.640;2023-07-31T08:23:40;17.20;99.90
39825;DHT22;25503;52.532;13.640;2023-07-31T08:26:06;17.20;99.90
39825;DHT22;25503;52.532;13.640;2023-07-31T08:28:32;17.30;99.90
39825;DHT22;25503;52.532;13.640;2023-07-31T08:30:57;17.30;99.90
39825;DHT22;25503;52.532;13.640;2023-07-31T08:33:23;17.30;99.90
39825;DHT22;25503;52.532;13.640;2023-07-31T08:35:48;17.30;99.90
39825;DHT22;25503;52.532;13.640;2023-07-31T08:38:14;17.30;99.90
39825;DHT22;25503;52.532;13.640;2023-07-31T08:40:40;17.40;99.90
39825;DHT22;25503;52.532;13.640;2023-07-31T08:43:07;17.40;99.90
39825;DHT22;25503;52.532;13.640;2023-07-31T08:45:32;17.50;99.90
39825;DHT22;25503;52.532;13.640;2023-07-31T08:47:59;17.40;99.90
39825;DHT22;25503;52.532;13.640;2023-07-31T08:50:25;17.30;99.90
39825;DHT22;25503;52.532;13.640;2023-07-31T08:52:51;17.40;99.90
39825;DHT22;25503;52.532;13.640;2023-07-31T08:55:18;17.30;99.90
39825;DHT22;25503;52.532;13.640;2023-07-31T08:57:49;17.40;99.90
39825;DHT22;25503;52.532;13.640;2023-07-31T09:00:15;17.40;99.90
39825;DHT22;25503;52.532;13.640;2023-07-31T09:02:48;17.40;99.90
39825;DHT22;25503;52.532;13.640;2023-07-31T09:05:17;17.30;99.90
39825;DHT22;25503;52.532;13.640;2023-07-31T09:07:45;17.30;99.90
39825;DHT22;25503;52.532;13.640;2023-07-31T09:10:12;17.40;99.90
39825;DHT22;25503;52.532;13.640;2023-07-31T09:12:38;17.40;99.90
39825;DHT22;25503;52.532;13.640;2023-07-31T09:15:05;17.40;99.90
39825;DHT22;25503;52.532;13.640;2023-07-31T09:17:32;17.40;99.90
39825;DHT22;25503;52.532;13.640;2023-07-31T09:19:58;17.40;99.90
39825;DHT22;25503;52.532;13.640;2023-07-31T09:22:32;17.50;99.90
39825;DHT22;25503;52.532;13.640;2023-07-31T09:25:20;17.60;99.90
39825;DHT22;25503;52.532;13.640;2023-07-31T09:30:17;17.70;99.90
39825;DHT22;25503;52.532;13.640;2023-07-31T09:32:44;17.80;99.90
39825;DHT22;25503;52.532;13.640;2023-07-31T09:35:21;17.70;99.90
39825;DHT22;25503;52.532;13.640;2023-07-31T09:37:55;17.80;99.90
39825;DHT22;25503;52.532;13.640;2023-07-31T09:40:37;17.80;99.90
39825;DHT22;25503;52.532;13.640;2023-07-31T09:43:04;17.80;99.90
39825;DHT22;25503;52.532;13.640;2023-07-31T09:45:36;17.80;99.90
39825;DHT22;25503;52.532;13.640;2023-07-31T09:48:02;17.70;99.90
39825;DHT22;25503;52.532;13.640;2023-07-31T09:50:28;17.70;99.90
39825;DHT22;25503;52.532;13.640;2023-07-31T09:52:54;17.60;99.90
39825;DHT22;25503;52.532;13.640;2023-07-31T09:55:20;17.50;99.90
39825;DHT22;25503;52.532;13.640;2023-07-31T09:57:47;17.40;99.90
39825;DHT22;25503;52.532;13.640;2023-07-31T10:00:17;17.30;99.90
39825;DHT22;25503;52.532;13.640;2023-07-31T10:02:47;17.20;99.90
39825;DHT22;25503;52.532;13.640;2023-07-31T10:05:14;17.30;99.90
39825;DHT22;25503;52.532;13.640;2023-07-31T10:07:59;17.30;99.90
39825;DHT22;25503;52.532;13.640;2023-07-31T10:10:25;17.30;99.90
39825;DHT22;25503;52.532;13.640;2023-07-31T10:12:52;17.30;99.90
39825;DHT22;25503;52.532;13.640;2023-07-31T10:15:19;17.40;99.90
39825;DHT22;25503;52.532;13.640;2023-07-31T10:17:47;17.50;99.90
39825;DHT22;25503;52.532;13.640;2023-07-31T10:20:14;17.50;99.90
39825;DHT22;25503;52.532;13.640;2023-07-31T10:22:45;17.50;99.90
39825;DHT22;25503;52.532;13.640;2023-07-31T10:25:15;17.60;99.90
39825;DHT22;25503;52.532;13.640;2023-07-31T10:27:42;17.70;99.90
39825;DHT22;25503;52.532;13.640;2023-07-31T10:30:14;17.80;99.90
39825;DHT22;25503;52.532;13.640;2023-07-31T10:32:41;17.80;99.90
39825;DHT22;25503;52.532;13.640;2023-07-31T10:35:09;17.90;99.90
39825;DHT22;25503;52.532;13.640;2023-07-31T10:37:40;17.90;99.90
39825;DHT22;25503;52.532;13.640;2023-07-31T10:40:16;17.90;99.90
39825;DHT22;25503;52.532;13.640;2023-07-31T10:42:49;17.90;99.90
39825;DHT22;25503;52.532;13.640;2023-07-31T10:45:33;17.90;99.90
39825;DHT22;25503;52.532;13.640;2023-07-31T10:48:04;17.90;99.90
39825;DHT22;25503;52.532;13.640;2023-07-31T10:50:31;17.90;99.90
39825;DHT22;25503;52.532;13.640;2023-07-31T10:53:00;17.90;99.90
39825;DHT22;25503;52.532;13.640;2023-07-31T10:55:40;17.90;99.90
39825;DHT22;25503;52.532;13.640;2023-07-31T10:58:08;18.00;99.90
39825;DHT22;25503;52.532;13.640;2023-07-31T11:00:34;18.10;99.90
39825;DHT22;25503;52.532;13.640;2023-07-31T11:03:02;18.10;99.90
39825;DHT22;25503;52.532;13.640;2023-07-31T11:08:35;18.50;99.90
39825;DHT22;25503;52.532;13.640;2023-07-31T11:13:34;18.90;99.90
39825;DHT22;25503;52.532;13.640;2023-07-31T11:16:04;19.10;99.90
39825;DHT22;25503;52.532;13.640;2023-07-31T11:18:30;19.20;99.90
39825;DHT22;25503;52.532;13.640;2023-07-31T11:20:56;19.30;99.90
39825;DHT22;25503;52.532;13.640;2023-07-31T11:23:22;19.30;99.90
39825;DHT22;25503;52.532;13.640;2023-07-31T11:25:48;19.50;99.90
39825;DHT22;25503;52.532;13.640;2023-07-31T11:28:16;19.50;99.90
39825;DHT22;25503;52.532;13.640;2023-07-31T11:30:43;19.50;99.90
39825;DHT22;25503;52.532;13.640;2023-07-31T11:33:10;19.50;99.90
39825;DHT22;25503;52.532;13.640;2023-07-31T11:38:07;19.60;99.90
39825;DHT22;25503;52.532;13.640;2023-07-31T11:40:44;19.70;99.90
39825;DHT22;25503;52.532;13.640;2023-07-31T11:43:10;19.80;99.90
39825;DHT22;25503;52.532;13.640;2023-07-31T11:45:37;19.90;99.90
39825;DHT22;25503;52.532;13.640;2023-07-31T11:48:03;20.00;99.90
39825;DHT22;25503;52.532;13.640;2023-07-31T11:50:33;20.00;99.90
39825;DHT22;25503;52.532;13.640;2023-07-31T11:53:03;20.00;99.90
39825;DHT22;25503;52.532;13.640;2023-07-31T11:55:29;20.00;99.90
39825;DHT22;25503;52.532;13.640;2023-07-31T11:57:57;20.00;99.90
39825;DHT22;25503;52.532;13.640;2023-07-31T12:00:24;20.00;99.90
39825;DHT22;25503;52.532;13.640;2023-07-31T12:02:51;20.00;99.90
39825;DHT22;25503;52.532;13.640;2023-07-31T12:05:17;20.00;99.90
39825;DHT22;25503;52.532;13.640;2023-07-31T12:07:53;20.00;99.90
39825;DHT22;25503;52.532;13.640;2023-07-31T12:10:32;20.00;99.90
39825;DHT22;25503;52.532;13.640;2023-07-31T12:15:37;20.00;99.90
39825;DHT22;25503;52.532;13.640;2023-07-31T12:18:10;20.00;99.90
39825;DHT22;25503;52.532;13.640;2023-07-31T12:20:44;20.00;99.90
39825;DHT22;25503;52.532;13.640;2023-07-31T12:23:20;20.00;99.90
39825;DHT22;25503;52.532;13.640;2023-07-31T12:26:13;19.90;99.90
39825;DHT22;25503;52.532;13.640;2023-07-31T12:28:44;19.80;99.90
39825;DHT22;25503;52.532;13.640;2023-07-31T12:31:21;19.70;99.90
39825;DHT22;25503;52.532;13.640;2023-07-31T12:33:48;19.60;99.90
39825;DHT22;25503;52.532;13.640;2023-07-31T12:36:22;19.70;99.90
39825;DHT22;25503;52.532;13.640;2023-07-31T12:38:49;19.70;99.90
39825;DHT22;25503;52.532;13.640;2023-07-31T12:41:15;19.80;99.90
39825;DHT22;25503;52.532;13.640;2023-07-31T12:43:43;19.90;99.90
39825;DHT22;25503;52.532;13.640;2023-07-31T12:46:09;20.00;99.90
39825;DHT22;25503;52.532;13.640;2023-07-31T12:48:35;20.10;99.90
39825;DHT22;25503;52.532;13.640;2023-07-31T12:51:02;20.10;99.90
39825;DHT22;25503;52.532;13.640;2023-07-31T12:53:28;20.20;99.90
39825;DHT22;25503;52.532;13.640;2023-07-31T12:55:57;20.20;99.90
39825;DHT22;25503;52.532;13.640;2023-07-31T12:58:23;20.20;99.90
39825;DHT22;25503;52.532;13.640;2023-07-31T13:00:48;20.20;99.90
39825;DHT22;25503;52.532;13.640;2023-07-31T13:03:14;20.20;99.90
39825;DHT22;25503;52.532;13.640;2023-07-31T13:05:40;20.20;99.90
39825;DHT22;25503;52.532;13.640;2023-07-31T13:08:05;20.30;99.90
39825;DHT22;25503;52.532;13.640;2023-07-31T13:10:31;20.30;99.90
39825;DHT22;25503;52.532;13.640;2023-07-31T13:12:57;20.40;99.90
39825;DHT22;25503;52.532;13.640;2023-07-31T13:15:23;20.40;99.90
39825;DHT22;25503;52.532;13.640;2023-07-31T13:17:48;20.50;99.90
39825;DHT22;25503;52.532;13.640;2023-07-31T13:20:14;20.50;99.90
39825;DHT22;25503;52.532;13.640;2023-07-31T13:22:39;20.50;99.90
39825;DHT22;25503;52.532;13.640;2023-07-31T13:25:05;20.50;99.90
39825;DHT22;25503;52.532;13.640;2023-07-31T13:27:31;20.40;99.90
39825;DHT22;25503;52.532;13.640;2023-07-31T13:29:57;20.40;99.90
39825;DHT22;25503;52.532;13.640;2023-07-31T13:32:23;20.30;99.90
39825;DHT22;25503;52.532;13.640;2023-07-31T13:34:49;20.30;99.90
39825;DHT22;25503;52.532;13.640;2023-07-31T13:37:15;20.20;99.90
39825;DHT22;25503;52.532;13.640;2023-07-31T13:39:41;20.20;99.90
39825;DHT22;25503;52.532;13.640;2023-07-31T13:42:07;20.10;99.90
39825;DHT22;25503;52.532;13.640;2023-07-31T13:44:40;20.10;99.90
39825;DHT22;25503;52.532;13.640;2023-07-31T13:47:06;20.00;99.90
39825;DHT22;25503;52.532;13.640;2023-07-31T13:49:32;20.00;99.90
39825;DHT22;25503;52.532;13.640;2023-07-31T13:51:58;20.00;99.90
39825;DHT22;25503;52.532;13.640;2023-07-31T13:54:24;20.10;99.90
39825;DHT22;25503;52.532;13.640;2023-07-31T13:56:51;20.20;99.90
39825;DHT22;25503;52.532;13.640;2023-07-31T13:59:17;20.30;99.90
39825;DHT22;25503;52.532;13.640;2023-07-31T14:01:43;20.40;99.90
39825;DHT22;25503;52.532;13.640;2023-07-31T14:04:09;20.50;99.90
39825;DHT22;25503;52.532;13.640;2023-07-31T14:06:35;20.60;99.90
39825;DHT22;25503;52.532;13.640;2023-07-31T14:09:00;20.80;99.90
39825;DHT22;25503;52.532;13.640;2023-07-31T14:11:26;20.90;99.90
39825;DHT22;25503;52.532;13.640;2023-07-31T14:13:52;20.90;99.90
39825;DHT22;25503;52.532;13.640;2023-07-31T14:16:18;20.90;99.90
39825;DHT22;25503;52.532;13.640;2023-07-31T14:18:43;20.90;99.90
39825;DHT22;25503;52.532;13.640;2023-07-31T14:21:11;20.90;99.90
39825;DHT22;25503;52.532;13.640;2023-07-31T14:23:36;20.90;99.90
39825;DHT22;25503;52.532;13.640;2023-07-31T14:26:02;20.90;99.90
39825;DHT22;25503;52.532;13.640;2023-07-31T14:28:28;21.00;99.90
39825;DHT22;25503;52.532;13.640;2023-07-31T14:30:53;21.00;99.90
39825;DHT22;25503;52.532;13.640;2023-07-31T14:33:19;21.10;99.90
39825;DHT22;25503;52.532;13.640;2023-07-31T14:35:44;21.20;99.90
39825;DHT22;25503;52.532;13.640;2023-07-31T14:38:10;21.20;99.90
39825;DHT22;25503;52.532;13.640;2023-07-31T14:40:35;21.20;99.90
39825;DHT22;25503;52.532;13.640;2023-07-31T14:43:02;21.20;99.90
39825;DHT22;25503;52.532;13.640;2023-07-31T14:45:27;21.10;99.90
39825;DHT22;25503;52.532;13.640;2023-07-31T14:47:53;21.10;99.90
39825;DHT22;25503;52.532;13.640;2023-07-31T14:50:20;21.10;99.90
39825;DHT22;25503;52.532;13.640;2023-07-31T14:52:46;21.10;99.90
39825;DHT22;25503;52.532;13.640;2023-07-31T14:55:11;21.10;99.90
39825;DHT22;25503;52.532;13.640;2023-07-31T14:57:37;21.20;99.90
39825;DHT22;25503;52.532;13.640;2023-07-31T15:00:03;21.20;99.90
39825;DHT22;25503;52.532;13.640;2023-07-31T15:02:36;21.20;99.90
39825;DHT22;25503;52.532;13.640;2023-07-31T15:05:01;21.20;99.90
39825;DHT22;25503;52.532;13.640;2023-07-31T15:07:27;21.20;99.90
39825;DHT22;25503;52.532;13.640;2023-07-31T15:09:53;21.20;99.90
39825;DHT22;25503;52.532;13.640;2023-07-31T15:12:18;21.20;99.90
39825;DHT22;25503;52.532;13.640;2023-07-31T15:14:44;21.20;99.90
39825;DHT22;25503;52.532;13.640;2023-07-31T15:17:09;21.20;99.90
39825;DHT22;25503;52.532;13.640;2023-07-31T15:19:35;21.20;99.90
39825;DHT22;25503;52.532;13.640;2023-07-31T15:22:06;21.20;99.90
39825;DHT22;25503;52.532;13.640;2023-07-31T15:24:31;21.20;99.90
39825;DHT22;25503;52.532;13.640;2023-07-31T15:26:57;21.20;99.90
39825;DHT22;25503;52.532;13.640;2023-07-31T15:29:23;21.10;99.90
39825;DHT22;25503;52.532;13.640;2023-07-31T15:31:48;21.10;99.90
39825;DHT22;25503;52.532;13.640;2023-07-31T15:34:15;21.10;99.90